createdAt,value
2019-02-22T00:02:25.294Z,21.10
2019-02-22T00:04:55.258Z,17.70
2019-02-22T00:07:26.301Z,23.10
2019-02-22T00:09:56.353Z,25.73
2019-02-22T00:12:26.434Z,19.77
2019-02-22T00:14:56.408Z,28.53
2019-02-22T00:17:26.395Z,19.80
2019-02-22T00:19:56.554Z,18.60
2019-02-22T00:22:26.641Z,21.37
2019-02-22T00:24:56.656Z,19.80
2019-02-22T00:27:26.661Z,20.37
2019-02-22T00:29:56.724Z,24.33
2019-02-22T00:32:26.712Z,23.87
2019-02-22T00:34:56.777Z,25.27
2019-02-22T00:37:27.225Z,18.03
2019-02-22T00:39:57.331Z,20.07
2019-02-22T00:42:27.316Z,31.80
2019-02-22T00:44:57.309Z,32.43
2019-02-22T00:47:27.349Z,28.50
2019-02-22T00:49:57.310Z,27.17
2019-02-22T00:52:27.324Z,23.13
2019-02-22T00:54:57.399Z,22.87
2019-02-22T00:57:29.724Z,19.63
2019-02-22T00:59:59.720Z,19.70
2019-02-22T01:02:29.688Z,27.03
2019-02-22T01:04:59.749Z,25.97
2019-02-22T01:07:29.720Z,19.80
2019-02-22T01:09:59.715Z,19.47
2019-02-22T01:12:29.776Z,30.00
2019-02-22T01:14:59.758Z,32.87
2019-02-22T01:17:29.813Z,23.70
2019-02-22T01:19:59.796Z,27.23
2019-02-22T01:22:29.748Z,21.50
2019-02-22T01:24:59.822Z,27.83
2019-02-22T01:27:29.806Z,24.73
2019-02-22T01:29:59.782Z,21.93
2019-02-22T01:32:29.863Z,26.83
2019-02-22T01:34:59.882Z,28.13
2019-02-22T01:37:29.866Z,25.77
2019-02-22T01:39:59.946Z,22.77
2019-02-22T01:42:29.942Z,20.43
2019-02-22T01:44:59.891Z,23.70
2019-02-22T01:47:29.885Z,24.20
2019-02-22T01:49:59.940Z,26.67
2019-02-22T01:52:30.004Z,27.60
2019-02-22T01:54:59.986Z,24.30
2019-02-22T01:57:30.087Z,24.50
2019-02-22T02:00:00.039Z,19.93
2019-02-22T02:02:30.234Z,29.90
2019-02-22T02:05:00.304Z,31.27
2019-02-22T02:07:30.351Z,23.37
2019-02-22T02:10:00.410Z,25.37
2019-02-22T02:12:30.424Z,22.53
2019-02-22T02:15:00.585Z,24.03
2019-02-22T02:17:30.566Z,28.73
2019-02-22T02:20:01.080Z,20.37
2019-02-22T02:22:31.547Z,31.23
2019-02-22T02:25:01.557Z,31.77
2019-02-22T02:27:31.633Z,26.77
2019-02-22T02:30:01.638Z,24.50
2019-02-22T02:32:31.764Z,23.20
2019-02-22T02:35:01.876Z,21.43
2019-02-22T02:37:32.107Z,28.77
2019-02-22T02:40:02.095Z,29.27
2019-02-22T02:42:33.538Z,25.23
2019-02-22T02:45:04.917Z,30.53
2019-02-22T02:47:35.087Z,29.47
2019-02-22T02:50:05.090Z,27.97
2019-02-22T02:52:35.146Z,32.60
2019-02-22T02:55:17.923Z,32.90
2019-02-22T02:57:48.037Z,26.97
2019-02-22T03:00:18.039Z,31.52
2019-02-22T03:02:48.090Z,20.20
2019-02-22T03:05:18.132Z,27.60
2019-02-22T03:07:48.498Z,32.53
2019-02-22T03:10:18.634Z,31.17
2019-02-22T03:12:48.696Z,34.53
2019-02-22T03:15:19.478Z,36.53
2019-02-22T03:17:49.553Z,30.47
2019-02-22T03:20:19.633Z,27.77
2019-02-22T03:22:49.614Z,28.33
2019-02-22T03:25:19.613Z,32.87
2019-02-22T03:27:49.555Z,30.97
2019-02-22T03:30:19.656Z,28.13
2019-02-22T03:32:49.610Z,37.50
2019-02-22T03:35:19.575Z,31.70
2019-02-22T03:37:50.198Z,34.10
2019-02-22T03:40:20.412Z,33.53
2019-02-22T03:42:50.401Z,34.07
2019-02-22T03:45:20.500Z,34.13
2019-02-22T03:47:50.576Z,26.37
2019-02-22T03:50:20.597Z,28.77
2019-02-22T03:52:53.753Z,35.30
2019-02-22T03:55:23.883Z,31.23
2019-02-22T03:57:53.870Z,33.07
2019-02-22T04:00:23.943Z,23.33
2019-02-22T04:02:53.984Z,21.67
2019-02-22T04:05:24.042Z,30.27
2019-02-22T04:07:54.014Z,33.20
2019-02-22T04:10:23.989Z,32.63
2019-02-22T04:12:53.980Z,30.97
2019-02-22T04:15:24.042Z,31.63
2019-02-22T04:17:54.138Z,34.53
2019-02-22T04:20:24.287Z,27.20
2019-02-22T04:22:54.406Z,30.13
2019-02-22T04:25:24.387Z,32.07
2019-02-22T04:27:54.372Z,23.20
2019-02-22T04:30:24.357Z,31.70
2019-02-22T04:32:54.694Z,31.03
2019-02-22T04:35:24.770Z,32.50
2019-02-22T04:37:54.781Z,33.23
2019-02-22T04:40:25.829Z,29.73
2019-02-22T04:42:55.908Z,27.63
2019-02-22T04:45:25.924Z,34.87
2019-02-22T04:47:56.002Z,30.90
2019-02-22T04:50:26.170Z,27.03
2019-02-22T04:52:56.138Z,28.87
2019-02-22T04:55:26.204Z,25.97
2019-02-22T04:57:56.308Z,34.87
2019-02-22T05:00:26.483Z,27.77
2019-02-22T05:02:56.667Z,28.93
2019-02-22T05:05:26.653Z,32.50
2019-02-22T05:07:56.620Z,34.33
2019-02-22T05:10:26.642Z,33.73
2019-02-22T05:12:56.628Z,35.20
2019-02-22T05:15:26.869Z,34.77
2019-02-22T05:17:57.088Z,30.23
2019-02-22T05:20:27.186Z,32.53
2019-02-22T05:23:03.876Z,31.77
2019-02-22T05:25:28.892Z,30.43
2019-02-22T05:27:58.903Z,33.00
2019-02-22T05:30:28.924Z,33.03
2019-02-22T05:32:58.915Z,28.13
2019-02-22T05:35:28.996Z,37.77
2019-02-22T05:37:58.995Z,31.77
2019-02-22T05:40:28.997Z,31.87
2019-02-22T05:42:59.016Z,34.83
2019-02-22T05:45:29.127Z,27.03
2019-02-22T05:47:59.118Z,23.17
2019-02-22T05:50:29.069Z,26.50
2019-02-22T05:52:59.056Z,35.07
2019-02-22T05:55:29.060Z,24.53
2019-02-22T05:57:59.151Z,35.57
2019-02-22T06:00:29.129Z,35.50
2019-02-22T06:02:59.198Z,33.47
2019-02-22T06:05:29.258Z,27.47
2019-02-22T06:07:59.249Z,32.47
2019-02-22T06:10:29.318Z,30.97
2019-02-22T06:12:59.372Z,24.27
2019-02-22T06:15:31.383Z,23.73
2019-02-22T06:18:01.435Z,27.20
2019-02-22T06:20:31.428Z,27.17
2019-02-22T06:23:01.393Z,21.50
2019-02-22T06:25:31.382Z,32.07
2019-02-22T06:28:01.409Z,36.70
2019-02-22T06:30:31.989Z,37.63
2019-02-22T06:33:02.159Z,26.10
2019-02-22T06:35:32.169Z,31.90
2019-02-22T06:38:02.302Z,25.43
2019-02-22T06:40:32.532Z,35.10
2019-02-22T06:43:02.514Z,21.40
2019-02-22T06:45:32.541Z,20.97
2019-02-22T06:48:02.569Z,20.60
2019-02-22T06:50:34.086Z,18.97
2019-02-22T06:53:04.333Z,28.40
2019-02-22T06:55:34.336Z,23.20
2019-02-22T06:58:04.454Z,22.57
2019-02-22T07:00:34.430Z,30.73
2019-02-22T07:03:04.571Z,28.47
2019-02-22T07:05:34.644Z,21.33
2019-02-22T07:08:04.780Z,27.53
2019-02-22T07:10:52.628Z,23.87
2019-02-22T07:13:24.424Z,26.20
2019-02-22T07:15:54.278Z,40.50
2019-02-22T07:18:24.252Z,27.67
2019-02-22T07:20:54.240Z,33.57
2019-02-22T07:23:24.276Z,20.23
2019-02-22T07:25:54.254Z,33.03
2019-02-22T07:28:24.218Z,29.07
2019-02-22T07:30:54.197Z,37.03
2019-02-22T07:33:24.278Z,29.73
2019-02-22T07:35:54.345Z,23.47
2019-02-22T07:38:24.320Z,32.73
2019-02-22T07:40:54.304Z,36.63
2019-02-22T07:43:24.478Z,34.13
2019-02-22T07:45:54.499Z,35.27
2019-02-22T07:48:24.723Z,29.07
2019-02-22T07:50:58.192Z,36.57
2019-02-22T07:53:26.543Z,35.57
2019-02-22T07:55:56.506Z,27.93
2019-02-22T07:58:26.504Z,24.80
2019-02-22T08:00:57.110Z,31.37
2019-02-22T08:03:27.188Z,32.50
2019-02-22T08:05:57.187Z,34.87
2019-02-22T08:08:27.197Z,41.63
2019-02-22T08:10:57.164Z,22.80
2019-02-22T08:13:27.190Z,34.67
2019-02-22T08:15:57.371Z,20.50
2019-02-22T08:18:27.411Z,35.30
2019-02-22T08:20:57.584Z,19.50
2019-02-22T08:23:27.601Z,32.60
2019-02-22T08:25:57.564Z,43.90
2019-02-22T08:28:27.598Z,21.27
2019-02-22T08:30:57.911Z,35.27
2019-02-22T08:33:34.605Z,40.47
2019-02-22T08:36:25.470Z,39.37
2019-02-22T08:38:58.198Z,36.33
2019-02-22T08:41:29.765Z,40.57
2019-02-22T08:44:00.042Z,40.37
2019-02-22T08:53:16.441Z,23.70
2019-02-22T08:55:46.440Z,28.20
2019-02-22T08:58:16.826Z,26.60
2019-02-22T09:01:04.964Z,21.20
2019-02-22T09:03:35.352Z,22.13
2019-02-22T09:06:05.528Z,20.43
2019-02-22T09:14:34.363Z,27.97
2019-02-22T09:17:06.283Z,24.30
2019-02-22T09:19:38.321Z,26.20
2019-02-22T09:22:09.077Z,31.17
2019-02-22T09:24:39.100Z,24.93
2019-02-22T09:27:17.306Z,31.17
2019-02-22T09:29:58.557Z,28.60
2019-02-22T09:32:26.414Z,24.47
2019-02-22T09:34:56.466Z,29.80
2019-02-22T09:37:30.573Z,25.80
2019-02-22T09:40:01.044Z,30.53
2019-02-22T09:42:34.492Z,29.70
2019-02-22T09:45:06.428Z,26.43
2019-02-22T09:47:36.759Z,31.93
2019-02-22T09:50:11.306Z,22.93
2019-02-22T09:52:45.694Z,28.20
2019-02-22T10:01:10.768Z,23.80
2019-02-22T10:03:40.877Z,32.90
2019-02-22T10:06:11.092Z,29.17
2019-02-22T10:08:41.206Z,29.37
2019-02-22T10:13:37.269Z,28.83
2019-02-22T10:16:07.305Z,34.97
2019-02-22T10:18:37.527Z,21.87
2019-02-22T10:21:07.577Z,26.97
2019-02-22T10:23:37.623Z,19.63
2019-02-22T10:26:07.589Z,22.80
2019-02-22T10:28:37.708Z,23.17
2019-02-22T10:31:07.886Z,22.57
2019-02-22T10:33:38.002Z,23.00
2019-02-22T10:36:10.594Z,27.13
2019-02-22T10:38:40.680Z,20.70
2019-02-22T10:41:11.315Z,21.60
2019-02-22T10:43:41.323Z,23.63
2019-02-22T10:46:14.380Z,26.53
2019-02-22T10:48:44.611Z,24.40
2019-02-22T10:51:14.931Z,27.43
2019-02-22T10:53:45.054Z,19.47
2019-02-22T10:56:15.158Z,21.00
2019-02-22T10:58:47.022Z,27.77
2019-02-22T11:01:17.078Z,25.47
2019-02-22T11:03:47.074Z,27.57
2019-02-22T11:06:17.028Z,24.70
2019-02-22T11:08:47.338Z,19.67
2019-02-22T11:11:18.804Z,21.43
2019-02-22T11:13:48.775Z,21.17
2019-02-22T11:16:18.809Z,20.60
2019-02-22T11:18:56.778Z,23.50
2019-02-22T11:21:26.993Z,23.13
2019-02-22T11:23:58.740Z,22.17
2019-02-22T11:26:29.409Z,24.47
2019-02-22T11:29:00.011Z,25.20
2019-02-22T11:31:29.960Z,17.50
2019-02-22T11:34:00.134Z,22.17
2019-02-22T11:36:30.196Z,20.20
2019-02-22T11:39:00.255Z,17.17
2019-02-22T11:41:30.339Z,19.23
2019-02-22T11:44:07.263Z,17.03
2019-02-22T11:46:39.478Z,20.40
2019-02-22T11:49:09.490Z,17.07
2019-02-22T11:51:43.711Z,22.90
2019-02-22T12:16:31.530Z,16.33
2019-02-22T12:28:06.124Z,16.10
2019-02-22T12:30:36.433Z,15.20
2019-02-22T12:33:06.738Z,18.13
2019-02-22T12:47:52.726Z,15.87
2019-02-22T12:56:10.310Z,22.83
2019-02-22T12:58:50.964Z,16.03
2019-02-22T13:01:21.182Z,17.33
2019-02-22T13:03:51.612Z,16.53
2019-02-22T13:06:21.602Z,22.37
2019-02-22T13:08:53.361Z,23.43
2019-02-22T13:11:23.429Z,15.50
2019-02-22T13:13:53.390Z,18.13
2019-02-22T13:16:23.451Z,20.33
2019-02-22T13:18:53.465Z,16.67
2019-02-22T13:21:23.480Z,16.43
2019-02-22T13:23:54.380Z,19.77
2019-02-22T13:26:24.517Z,18.30
2019-02-22T13:28:54.658Z,16.00
2019-02-22T13:37:10.581Z,16.03
2019-02-22T13:39:40.582Z,13.10
2019-02-22T13:42:10.553Z,13.40
2019-02-22T13:44:40.615Z,11.83
2019-02-22T13:47:10.652Z,15.37
2019-02-22T13:49:40.669Z,15.13
2019-02-22T13:52:10.636Z,15.37
2019-02-22T13:54:40.653Z,16.77
2019-02-22T13:57:10.812Z,12.13
2019-02-22T13:59:40.810Z,15.77
2019-02-22T14:02:10.806Z,16.47
2019-02-22T14:04:40.787Z,19.03
2019-02-22T14:07:10.792Z,17.67
2019-02-22T14:09:40.905Z,18.03
2019-02-22T14:12:11.877Z,19.03
2019-02-22T14:14:41.883Z,20.30
2019-02-22T14:17:11.830Z,18.67
2019-02-22T14:19:42.314Z,20.03
2019-02-22T14:22:12.410Z,23.17
2019-02-22T14:24:42.431Z,21.40
2019-02-22T14:27:12.440Z,19.03
2019-02-22T14:29:42.492Z,19.90
2019-02-22T14:32:12.516Z,20.27
2019-02-22T14:34:42.985Z,25.47
2019-02-22T14:37:13.085Z,22.40
2019-02-22T14:39:44.029Z,22.90
2019-02-22T14:42:13.990Z,20.07
2019-02-22T14:44:44.046Z,21.83
2019-02-22T14:47:14.061Z,23.53
2019-02-22T14:49:44.054Z,22.80
2019-02-22T14:52:14.090Z,23.07
2019-02-22T14:54:44.228Z,22.17
2019-02-22T14:57:14.250Z,24.17
2019-02-22T14:59:44.224Z,22.57
2019-02-22T15:02:14.205Z,25.43
2019-02-22T15:04:44.298Z,25.63
2019-02-22T15:07:14.323Z,20.03
2019-02-22T15:09:44.484Z,20.10
2019-02-22T15:12:14.542Z,21.67
2019-02-22T15:14:44.559Z,18.37
2019-02-22T15:17:30.405Z,25.47
2019-02-22T15:20:00.492Z,21.73
2019-02-22T15:22:30.545Z,23.63
2019-02-22T15:25:00.542Z,19.73
2019-02-22T15:27:30.602Z,19.33
2019-02-22T15:30:00.626Z,19.57
2019-02-22T15:32:30.688Z,20.77
2019-02-22T15:35:00.686Z,20.80
2019-02-22T15:37:30.766Z,19.97
2019-02-22T15:40:00.845Z,19.57
2019-02-22T15:42:32.151Z,22.77
2019-02-22T15:45:02.252Z,21.07
2019-02-22T15:47:33.797Z,15.23
2019-02-22T15:50:04.991Z,18.47
2019-02-22T15:52:35.821Z,20.90
2019-02-22T15:55:06.489Z,15.57
2019-02-22T15:57:36.584Z,16.77
2019-02-22T16:00:08.145Z,17.57
2019-02-22T16:02:38.241Z,16.43
2019-02-22T16:05:15.450Z,16.93
2019-02-22T16:07:45.530Z,16.87
2019-02-22T16:10:15.635Z,17.90
2019-02-22T16:12:46.020Z,19.63
2019-02-22T16:15:16.252Z,18.13
2019-02-22T16:17:46.302Z,15.13
2019-02-22T16:20:16.379Z,17.80
2019-02-22T16:22:46.358Z,15.60
2019-02-22T16:25:19.447Z,14.10
2019-02-22T16:27:48.087Z,12.33
2019-02-22T16:30:19.576Z,16.87
2019-02-22T16:32:49.640Z,15.23
2019-02-22T16:35:19.597Z,13.87
2019-02-22T16:37:49.556Z,16.73
2019-02-22T16:40:21.714Z,14.60
2019-02-22T16:42:51.693Z,16.53
2019-02-22T16:45:21.659Z,14.20
2019-02-22T16:47:52.065Z,14.70
2019-02-22T16:50:22.287Z,13.77
2019-02-22T16:52:52.374Z,14.93
2019-02-22T16:55:22.482Z,14.00
2019-02-22T16:57:52.492Z,15.03
2019-02-22T17:00:22.512Z,13.47
2019-02-22T17:02:52.659Z,12.40
2019-02-22T17:05:22.732Z,13.13
2019-02-22T17:07:52.980Z,12.57
2019-02-22T17:10:23.995Z,12.60
2019-02-22T17:12:54.685Z,13.43
2019-02-22T17:15:25.360Z,12.43
2019-02-22T17:17:57.378Z,11.23
2019-02-22T17:20:27.332Z,11.13
2019-02-22T17:22:57.291Z,16.90
2019-02-22T17:25:27.771Z,12.37
2019-02-22T17:27:57.766Z,12.27
2019-02-22T17:30:27.817Z,14.33
2019-02-22T17:32:57.844Z,12.07
2019-02-22T17:35:28.260Z,12.33
2019-02-22T17:37:58.336Z,13.40
2019-02-22T17:40:28.385Z,10.87
2019-02-22T17:42:58.343Z,11.30
2019-02-22T17:45:28.420Z,11.40
2019-02-22T17:48:00.909Z,10.63
2019-02-22T17:50:30.987Z,11.50
2019-02-22T17:53:01.379Z,12.03
2019-02-22T17:55:31.386Z,14.53
2019-02-22T17:58:01.341Z,13.00
2019-02-22T18:00:31.513Z,18.20
2019-02-22T18:03:01.560Z,13.17
2019-02-22T18:05:31.569Z,13.23
2019-02-22T18:10:38.210Z,12.53
2019-02-22T18:13:08.364Z,12.57
2019-02-22T18:15:38.402Z,16.17
2019-02-22T18:18:08.470Z,17.77
2019-02-22T18:20:38.527Z,12.70
2019-02-22T18:23:08.597Z,16.43
2019-02-22T18:25:38.612Z,11.87
2019-02-22T18:28:09.377Z,22.27
2019-02-22T18:33:21.353Z,17.00
2019-02-22T18:35:52.562Z,19.43
2019-02-22T18:38:22.593Z,19.73
2019-02-22T18:40:53.673Z,18.13
2019-02-22T18:43:23.839Z,16.83
2019-02-22T18:45:53.908Z,20.63
2019-02-22T18:48:24.347Z,14.07
2019-02-22T18:50:54.393Z,14.77
2019-02-22T18:53:24.725Z,19.97
2019-02-22T18:55:54.755Z,16.27
2019-02-22T18:58:24.832Z,19.27
2019-02-22T19:00:54.839Z,21.50
2019-02-22T19:03:25.966Z,16.57
2019-02-22T19:05:56.000Z,16.97
2019-02-22T19:08:32.355Z,22.50
2019-02-22T19:10:59.856Z,22.97
2019-02-22T19:13:29.967Z,15.63
2019-02-22T19:16:00.011Z,18.90
2019-02-22T19:18:30.055Z,13.23
2019-02-22T19:21:00.165Z,19.00
2019-02-22T19:23:30.286Z,15.13
2019-02-22T19:26:00.287Z,14.97
2019-02-22T19:28:31.147Z,15.87
2019-02-22T19:31:02.113Z,17.43
2019-02-22T19:33:32.477Z,17.13
2019-02-22T19:36:02.506Z,14.67
2019-02-22T19:38:32.588Z,17.13
2019-02-22T19:41:02.702Z,12.97
2019-02-22T19:43:32.669Z,15.97
2019-02-22T19:46:02.766Z,17.27
2019-02-22T19:48:32.785Z,13.80
2019-02-22T19:51:02.920Z,14.83
2019-02-22T19:53:33.261Z,16.77
2019-02-22T19:56:04.051Z,14.93
2019-02-22T19:58:34.196Z,14.17
2019-02-22T20:01:04.474Z,11.83
2019-02-22T20:03:34.521Z,13.77
2019-02-22T20:06:04.707Z,13.73
2019-02-22T20:08:34.868Z,11.13
2019-02-22T20:11:04.927Z,12.37
2019-02-22T20:13:35.130Z,10.90
2019-02-22T20:16:05.539Z,11.90
2019-02-22T20:18:35.682Z,11.50
2019-02-22T20:21:06.020Z,8.47
2019-02-22T20:23:36.079Z,9.30
2019-02-22T20:26:06.032Z,12.03
2019-02-22T20:28:36.085Z,11.60
2019-02-22T20:31:06.145Z,12.53
2019-02-22T20:33:36.156Z,10.87
2019-02-22T20:36:06.355Z,8.80
2019-02-22T20:38:36.474Z,10.57
2019-02-22T20:41:06.498Z,11.10
2019-02-22T20:43:36.556Z,8.23
2019-02-22T20:46:06.603Z,9.97
2019-02-22T20:48:36.592Z,9.43
2019-02-22T20:51:06.781Z,11.13
2019-02-22T20:53:37.883Z,9.30
2019-02-22T20:56:07.854Z,10.90
2019-02-22T20:58:37.833Z,9.67
2019-02-22T21:01:14.723Z,9.70
2019-02-22T21:03:39.581Z,8.63
2019-02-22T21:06:09.547Z,10.70
2019-02-22T21:08:39.549Z,10.07
2019-02-22T21:11:09.554Z,9.63
2019-02-22T21:13:39.561Z,9.23
2019-02-22T21:16:09.578Z,11.00
2019-02-22T21:18:39.614Z,9.50
2019-02-22T21:21:09.640Z,8.93
2019-02-22T21:23:39.592Z,12.83
2019-02-22T21:26:09.644Z,11.83
2019-02-22T21:28:39.903Z,9.43
2019-02-22T21:31:10.391Z,10.93
2019-02-22T21:33:40.773Z,11.03
2019-02-22T21:36:11.160Z,11.27
2019-02-22T21:38:41.178Z,9.00
2019-02-22T21:41:11.250Z,9.30
2019-02-22T21:43:41.311Z,13.30
2019-02-22T21:46:11.514Z,11.80
2019-02-22T21:48:41.519Z,10.50
2019-02-22T21:51:11.805Z,8.90
2019-02-22T21:53:42.187Z,11.13
2019-02-22T21:56:12.669Z,10.77
2019-02-22T21:58:43.237Z,11.97
2019-02-22T22:01:13.629Z,10.70
2019-02-22T22:03:44.288Z,9.53
2019-02-22T22:06:14.300Z,8.13
2019-02-22T22:08:44.539Z,9.33
2019-02-22T22:11:14.538Z,14.10
2019-02-22T22:13:44.794Z,9.87
2019-02-22T22:16:14.774Z,10.83
2019-02-22T22:18:44.743Z,9.87
2019-02-22T22:21:14.701Z,8.83
2019-02-22T22:23:44.757Z,11.00
2019-02-22T22:26:14.822Z,10.03
2019-02-22T22:28:44.882Z,9.47
2019-02-22T22:31:14.936Z,8.87
2019-02-22T22:33:45.907Z,9.73
2019-02-22T22:36:15.899Z,8.98
2019-02-22T22:38:46.073Z,10.03
2019-02-22T22:41:16.133Z,11.00
2019-02-22T22:43:46.119Z,9.53
2019-02-22T22:46:16.224Z,9.17
2019-02-22T22:48:50.465Z,9.60
2019-02-22T22:51:18.019Z,9.87
2019-02-22T22:53:48.064Z,8.07
2019-02-22T22:56:18.061Z,8.50
2019-02-22T22:58:48.051Z,9.63
2019-02-22T23:01:23.593Z,8.13
2019-02-22T23:03:53.821Z,12.10
2019-02-22T23:06:23.923Z,9.03
2019-02-22T23:08:53.993Z,11.43
2019-02-22T23:11:24.077Z,11.33
2019-02-22T23:13:54.277Z,10.83
2019-02-22T23:16:24.325Z,11.30
2019-02-22T23:19:01.956Z,10.67
2019-02-22T23:21:30.148Z,13.33
2019-02-22T23:23:59.862Z,16.33
2019-02-22T23:26:30.071Z,13.90
2019-02-22T23:29:01.823Z,13.83
2019-02-22T23:31:31.795Z,16.87
2019-02-22T23:34:01.909Z,13.30
2019-02-22T23:36:32.935Z,17.13
2019-02-22T23:39:04.474Z,15.93
2019-02-22T23:41:36.219Z,13.90
2019-02-22T23:44:06.182Z,19.17
2019-02-22T23:46:36.162Z,16.23
2019-02-22T23:49:13.134Z,17.37
2019-02-22T23:51:37.847Z,21.37
2019-02-22T23:54:08.097Z,18.23
2019-02-22T23:56:39.033Z,16.20
2019-02-22T23:59:09.033Z,19.43
